Vremea acum in Zlatna - Romania

Vrei sa afli care e starea vremii acum in Arad - Romania? Dorim sa iti furnizam starea vremii pentru Arad - Romania. Starea vremii Arad - Romania pentru astazi.

Vremea acum in Zlatna

Temperatura: 24.7 °C

Este: Senin
Se simte ca: 24.9 °C
Innorat: 13 %
Precipitatii: 0 %
Presiune atmosferica: 1012 hPa
Umiditate: 35%
Vizibilitate: 10 km
Vantul bate din SW cu 7.9 km/h

Evolutia vremii in Zlatna pe ore

Ora: 18:00
Thundery outbreaks in nearby
Temperatura: 22.9°C
Sansa de precipitatii: 0%
Ora Descriere Temp Se simte Precipitatii Umiditate Vant
00:00Senin11.7°11.2°0%67%WSW 7.2 KM/H
01:00Senin11°10.3°0%70%WSW 7.2 KM/H
02:00Senin10.6°10.1°0%71%WSW 6.5 KM/H
03:00Senin10.1°9.2°0%74%WSW 7.6 KM/H
04:00Senin9.7°0%77%WSW 6.5 KM/H
05:00Senin9.5°8.7°0%77%WSW 6.5 KM/H
06:00Senin9.2°8.6°0%79%WSW 5.8 KM/H
07:00Senin10°9.7°0%78%WSW 5.4 KM/H
08:00Senin14.4°14.8°0%71%WSW 4.7 KM/H
09:00Senin16.9°16.9°0%64%SW 5.8 KM/H
10:00Senin19°19°0%58%SW 7.6 KM/H
11:00Senin20.7°20.7°0%53%SW 9 KM/H
12:00Senin22.1°24.4°0%49%WSW 9.7 KM/H
13:00Senin23.2°24.6°0%44%WSW 10.4 KM/H
14:00Senin24.2°24.8°0%39%SW 9 KM/H
15:00Senin24.7°24.9°0%35%SW 7.9 KM/H
16:00Thundery outbreaks in nearby25°25°0%34%SW 8.3 KM/H
17:00Thundery outbreaks in nearby24.6°25°0%37%SW 9.4 KM/H
18:00Thundery outbreaks in nearby22.9°24.6°0%48%WSW 12.6 KM/H
19:00Thundery outbreaks in nearby19.8°19.8°0%57%SW 11.9 KM/H
20:00Senin16.2°16.2°0%67%SW 8.6 KM/H
21:00Patchy rain nearby14°13.6°63%70%WSW 8.6 KM/H
22:00Patchy rain nearby12.9°12.7°100%74%W 6.8 KM/H
23:00Patchy rain nearby12°12.1°71%78%W 4.7 KM/H




tutorials